createdAt,value
2022-12-05T00:01:37.056Z,15.75
2022-12-05T00:04:06.760Z,14.18
2022-12-05T00:06:34.779Z,15.48
2022-12-05T00:09:01.905Z,14.48
2022-12-05T00:11:36.006Z,15.13
2022-12-05T00:14:04.212Z,15.68
2022-12-05T00:16:33.212Z,16.17
2022-12-05T00:19:01.599Z,15.18
2022-12-05T00:21:30.239Z,17.52
2022-12-05T00:23:58.367Z,16.67
2022-12-05T00:26:25.860Z,17.95
2022-12-05T00:28:52.754Z,14.32
2022-12-05T00:31:24.325Z,17.50
2022-12-05T00:33:52.479Z,17.20
2022-12-05T00:36:21.733Z,17.90
2022-12-05T00:38:49.152Z,14.68
2022-12-05T00:41:24.709Z,15.02
2022-12-05T00:43:52.618Z,17.77
2022-12-05T00:46:23.164Z,15.75
2022-12-05T00:48:52.214Z,16.75
2022-12-05T00:51:22.962Z,16.02
2022-12-05T00:53:50.544Z,15.63
2022-12-05T00:56:21.127Z,16.85
2022-12-05T00:58:48.721Z,15.77
2022-12-05T01:01:20.936Z,17.48
2022-12-05T01:03:48.356Z,14.98
2022-12-05T01:06:16.188Z,18.02
2022-12-05T01:08:43.593Z,14.07
2022-12-05T01:11:14.049Z,16.48
2022-12-05T01:13:41.123Z,16.52
2022-12-05T01:16:17.578Z,14.98
2022-12-05T01:18:44.844Z,15.75
2022-12-05T01:21:11.915Z,15.10
2022-12-05T01:23:39.089Z,12.82
2022-12-05T01:26:12.328Z,16.85
2022-12-05T01:28:40.344Z,17.63
2022-12-05T01:31:14.486Z,17.08
2022-12-05T01:33:41.355Z,15.18
2022-12-05T01:36:12.318Z,17.45
2022-12-05T01:38:41.142Z,15.63
2022-12-05T01:41:12.120Z,15.15
2022-12-05T01:44:08.354Z,15.77
2022-12-05T01:46:37.563Z,17.95
2022-12-05T01:49:10.264Z,17.75
2022-12-05T01:51:40.231Z,17.00
2022-12-05T01:54:09.095Z,14.27
2022-12-05T01:56:37.467Z,15.50
2022-12-05T01:59:06.604Z,15.55
2022-12-05T02:01:33.989Z,15.02
2022-12-05T02:04:01.763Z,14.02
2022-12-05T02:06:28.947Z,16.63
2022-12-05T02:08:55.899Z,15.57
2022-12-05T02:11:24.828Z,14.57
2022-12-05T02:14:13.457Z,17.00
2022-12-05T02:16:40.351Z,14.60
2022-12-05T02:19:15.774Z,15.45
2022-12-05T02:22:12.097Z,15.20
2022-12-05T02:25:00.042Z,15.30
2022-12-05T02:28:08.295Z,15.07
2022-12-05T02:31:04.573Z,16.88
2022-12-05T02:34:14.479Z,16.80
2022-12-05T02:37:08.560Z,14.90
2022-12-05T02:40:19.277Z,10.35
2022-12-05T02:43:13.119Z,15.02
2022-12-05T02:45:41.733Z,15.00
2022-12-05T02:48:11.096Z,17.38
2022-12-05T02:50:40.483Z,18.38
2022-12-05T02:53:11.265Z,17.25
2022-12-05T02:55:41.207Z,16.33
2022-12-05T02:58:15.759Z,17.40
2022-12-05T03:00:47.472Z,17.23
2022-12-05T03:03:18.434Z,19.58
2022-12-05T03:05:57.167Z,20.17
2022-12-05T03:08:31.609Z,19.38
2022-12-05T03:11:01.060Z,19.77
2022-12-05T03:13:39.751Z,17.30
2022-12-05T03:16:16.431Z,15.82
2022-12-05T03:18:51.410Z,16.83
2022-12-05T03:21:30.449Z,17.40
2022-12-05T03:24:02.503Z,19.35
2022-12-05T03:26:35.468Z,18.75
2022-12-05T03:29:04.952Z,20.02
2022-12-05T03:31:37.835Z,18.25
2022-12-05T03:34:10.780Z,20.02
2022-12-05T03:36:42.505Z,23.27
2022-12-05T03:39:18.661Z,19.13
2022-12-05T03:42:13.467Z,19.00
2022-12-05T03:45:06.383Z,21.42
2022-12-05T03:47:51.588Z,19.73
2022-12-05T03:50:30.040Z,19.13
2022-12-05T03:53:23.703Z,20.15
2022-12-05T03:55:58.865Z,16.80
2022-12-05T03:58:33.136Z,17.95
2022-12-05T04:03:40.734Z,15.65
2022-12-05T04:06:33.321Z,18.17
2022-12-05T04:09:16.878Z,17.85
2022-12-05T04:11:49.823Z,20.63
2022-12-05T04:14:31.299Z,19.73
2022-12-05T04:17:03.847Z,24.75
2022-12-05T04:20:10.969Z,19.45
2022-12-05T04:22:39.484Z,22.00
2022-12-05T04:25:28.740Z,21.95
2022-12-05T04:28:30.908Z,19.23
2022-12-05T04:31:19.443Z,18.50
2022-12-05T04:33:57.531Z,20.35
2022-12-05T04:36:30.135Z,16.20
2022-12-05T04:39:17.510Z,20.33
2022-12-05T04:41:52.032Z,21.10
2022-12-05T04:44:24.010Z,21.85
2022-12-05T04:46:53.391Z,19.45
2022-12-05T04:49:25.426Z,18.52
2022-12-05T04:51:57.463Z,19.25
2022-12-05T04:54:32.423Z,19.83
2022-12-05T04:57:24.232Z,23.65
2022-12-05T04:59:51.156Z,20.27
2022-12-05T05:02:24.784Z,22.60
2022-12-05T05:04:55.357Z,20.33
2022-12-05T05:07:22.235Z,17.05
2022-12-05T05:09:49.118Z,21.70
2022-12-05T05:12:19.225Z,23.23
2022-12-05T05:14:46.366Z,21.80
2022-12-05T05:17:13.170Z,21.50
2022-12-05T05:19:39.990Z,22.35
2022-12-05T05:22:06.799Z,23.10
2022-12-05T05:24:33.690Z,22.63
2022-12-05T05:27:00.455Z,24.85
2022-12-05T05:29:27.249Z,19.98
2022-12-05T05:31:54.174Z,21.13
2022-12-05T05:34:20.963Z,23.00
2022-12-05T05:36:52.094Z,23.13
2022-12-05T05:39:18.892Z,19.50
2022-12-05T05:41:45.695Z,24.65
2022-12-05T05:44:12.498Z,18.60
2022-12-05T05:46:39.381Z,22.00
2022-12-05T05:49:06.288Z,23.77
2022-12-05T05:51:33.144Z,20.80
2022-12-05T05:54:00.428Z,21.08
2022-12-05T05:56:28.079Z,19.42
2022-12-05T05:59:01.325Z,23.35
2022-12-05T06:01:29.180Z,20.10
2022-12-05T06:03:56.653Z,22.17
2022-12-05T06:06:24.073Z,28.98
2022-12-05T06:08:51.097Z,22.45
2022-12-05T06:11:26.004Z,22.40
2022-12-05T06:13:55.605Z,24.40
2022-12-05T06:16:22.867Z,26.25
2022-12-05T06:18:50.106Z,26.38
2022-12-05T06:21:17.694Z,31.73
2022-12-05T06:23:44.833Z,25.08
2022-12-05T06:26:14.231Z,23.02
2022-12-05T06:28:41.433Z,24.40
2022-12-05T06:31:17.809Z,22.98
2022-12-05T06:33:45.444Z,27.33
2022-12-05T06:36:15.461Z,26.90
2022-12-05T06:38:42.833Z,23.65
2022-12-05T06:41:15.259Z,30.58
2022-12-05T06:43:42.676Z,24.42
2022-12-05T06:46:12.554Z,21.48
2022-12-05T06:48:39.615Z,25.65
2022-12-05T06:51:10.516Z,25.23
2022-12-05T06:53:37.738Z,27.15
2022-12-05T06:56:11.521Z,24.38
2022-12-05T06:58:38.320Z,23.73
2022-12-05T07:01:24.093Z,25.25
2022-12-05T07:03:51.670Z,24.90
2022-12-05T07:06:18.525Z,26.77
2022-12-05T07:08:47.389Z,26.00
2022-12-05T07:11:14.298Z,27.75
2022-12-05T07:13:41.156Z,31.48
2022-12-05T07:16:08.487Z,27.35
2022-12-05T07:18:36.441Z,28.25
2022-12-05T07:21:14.804Z,26.45
2022-12-05T07:23:44.040Z,27.35
2022-12-05T07:26:17.942Z,25.98
2022-12-05T07:28:45.192Z,28.48
2022-12-05T07:31:15.522Z,27.35
2022-12-05T07:33:42.796Z,27.27
2022-12-05T07:36:13.254Z,27.75
2022-12-05T07:38:41.069Z,26.40
2022-12-05T07:41:13.466Z,26.65
2022-12-05T07:43:42.247Z,28.77
2022-12-05T07:46:13.485Z,26.35
2022-12-05T07:48:40.694Z,27.15
2022-12-05T07:51:09.470Z,30.08
2022-12-05T07:53:37.070Z,34.17
2022-12-05T07:56:05.956Z,26.88
2022-12-05T07:58:33.533Z,26.20
2022-12-05T08:01:08.999Z,25.65
2022-12-05T08:03:37.448Z,23.98
2022-12-05T08:06:06.504Z,23.85
2022-12-05T08:08:33.564Z,27.08
2022-12-05T08:11:12.301Z,29.20
2022-12-05T08:13:39.903Z,24.85
2022-12-05T08:16:10.564Z,24.15
2022-12-05T08:18:37.523Z,25.08
2022-12-05T08:21:06.715Z,24.00
2022-12-05T08:23:34.334Z,23.55
2022-12-05T08:26:03.025Z,28.30
2022-12-05T08:28:30.659Z,26.33
2022-12-05T08:31:06.986Z,22.85
2022-12-05T08:33:34.440Z,25.33
2022-12-05T08:36:03.351Z,22.45
2022-12-05T08:38:30.619Z,26.63
2022-12-05T08:41:00.119Z,22.90
2022-12-05T08:43:26.878Z,22.58
2022-12-05T08:45:53.912Z,26.88
2022-12-05T08:48:28.841Z,25.60
2022-12-05T08:50:56.798Z,24.65
2022-12-05T08:53:23.675Z,22.42
2022-12-05T08:55:50.565Z,23.75
2022-12-05T08:58:17.636Z,21.35
2022-12-05T09:00:44.442Z,23.08
2022-12-05T09:03:12.502Z,21.70
2022-12-05T09:05:39.671Z,21.45
2022-12-05T09:08:06.577Z,23.30
2022-12-05T09:10:33.906Z,23.77
2022-12-05T09:13:00.751Z,20.92
2022-12-05T09:15:27.656Z,20.10
2022-12-05T09:17:54.678Z,22.80
2022-12-05T09:20:22.362Z,23.13
2022-12-05T09:22:49.242Z,22.15
2022-12-05T09:25:16.085Z,17.95
2022-12-05T09:27:42.981Z,19.48
2022-12-05T09:30:10.347Z,25.35
2022-12-05T09:32:37.596Z,20.60
2022-12-05T09:35:04.635Z,21.52
2022-12-05T09:37:39.230Z,21.98
2022-12-05T09:40:08.376Z,21.88
2022-12-05T09:42:56.432Z,20.50
2022-12-05T09:45:37.393Z,23.10
2022-12-05T09:48:21.019Z,19.88
2022-12-05T09:50:56.499Z,23.25
2022-12-05T09:53:35.699Z,20.83
2022-12-05T09:56:23.396Z,24.50
2022-12-05T09:58:54.084Z,20.40
2022-12-05T10:01:50.835Z,20.60
2022-12-05T10:04:17.744Z,21.67
2022-12-05T10:07:03.736Z,22.13
2022-12-05T10:09:54.323Z,22.10
2022-12-05T10:12:51.995Z,22.10
2022-12-05T10:15:27.834Z,20.25
2022-12-05T10:18:20.693Z,22.25
2022-12-05T10:20:52.237Z,20.85
2022-12-05T10:23:49.307Z,21.75
2022-12-05T10:26:14.617Z,21.70
2022-12-05T10:29:12.482Z,21.95
2022-12-05T10:31:40.995Z,20.85
2022-12-05T10:34:35.591Z,23.13
2022-12-05T10:37:24.167Z,22.85
2022-12-05T10:39:52.211Z,21.83
2022-12-05T10:42:34.503Z,22.23
2022-12-05T10:45:04.887Z,21.67
2022-12-05T10:47:32.867Z,22.27
2022-12-05T10:50:14.102Z,21.27
2022-12-05T10:52:40.938Z,19.48
2022-12-05T10:55:08.448Z,19.60
2022-12-05T10:57:35.426Z,23.35
2022-12-05T11:00:17.844Z,20.98
2022-12-05T11:02:50.782Z,21.58
2022-12-05T11:05:28.288Z,21.60
2022-12-05T11:07:56.806Z,20.90
2022-12-05T11:10:27.520Z,20.40
2022-12-05T11:12:57.737Z,21.60
2022-12-05T11:15:27.656Z,23.90
2022-12-05T11:17:56.897Z,21.58
2022-12-05T11:20:23.652Z,19.88
2022-12-05T11:22:59.426Z,18.75
2022-12-05T11:25:34.178Z,21.58
2022-12-05T11:28:21.236Z,19.10
2022-12-05T11:31:00.382Z,26.30
2022-12-05T11:33:30.536Z,19.13
2022-12-05T11:36:22.077Z,20.65
2022-12-05T11:38:49.669Z,20.80
2022-12-05T11:41:25.789Z,19.95
2022-12-05T11:43:55.379Z,18.52
2022-12-05T11:47:05.797Z,18.70
2022-12-05T11:49:44.800Z,18.77
2022-12-05T11:52:40.267Z,19.38
2022-12-05T11:55:24.757Z,19.02
2022-12-05T11:58:12.568Z,13.23
2022-12-05T12:01:06.010Z,19.23
2022-12-05T12:03:54.438Z,20.63
2022-12-05T12:07:09.529Z,18.95
2022-12-05T12:12:35.724Z,14.52
2022-12-05T12:15:30.342Z,16.15
2022-12-05T12:18:22.589Z,16.63
2022-12-05T12:21:16.069Z,18.10
2022-12-05T12:23:48.043Z,18.85
2022-12-05T12:26:39.522Z,19.65
2022-12-05T12:29:45.709Z,18.95
2022-12-05T12:32:21.578Z,20.65
2022-12-05T12:35:17.959Z,23.52
2022-12-05T12:38:06.676Z,19.88
2022-12-05T12:40:54.667Z,17.95
2022-12-05T12:43:53.997Z,20.33
2022-12-05T12:46:34.672Z,18.13
2022-12-05T12:49:46.090Z,19.20
2022-12-05T12:52:17.125Z,18.60
2022-12-05T12:55:15.832Z,18.60
2022-12-05T12:58:04.444Z,18.33
2022-12-05T13:00:55.021Z,19.35
2022-12-05T13:03:36.479Z,18.13
2022-12-05T13:06:14.370Z,15.38
2022-12-05T13:08:56.681Z,17.00
2022-12-05T13:11:25.111Z,17.92
2022-12-05T13:13:57.767Z,18.48
2022-12-05T13:16:30.808Z,17.70
2022-12-05T13:18:58.799Z,16.75
2022-12-05T13:21:27.480Z,17.05
2022-12-05T13:23:57.047Z,19.17
2022-12-05T13:26:24.049Z,17.70
2022-12-05T13:28:54.689Z,16.80
2022-12-05T13:31:43.606Z,14.48
2022-12-05T13:34:39.664Z,15.30
2022-12-05T13:37:38.771Z,15.00
2022-12-05T13:40:36.999Z,15.63
2022-12-05T13:43:05.570Z,14.10
2022-12-05T13:45:33.654Z,14.95
2022-12-05T13:48:00.448Z,14.63
2022-12-05T13:50:33.405Z,14.05
2022-12-05T13:53:26.466Z,14.77
2022-12-05T13:56:06.208Z,14.77
2022-12-05T13:58:43.519Z,14.48
2022-12-05T14:01:28.281Z,15.55
2022-12-05T14:04:00.808Z,15.82
2022-12-05T14:06:50.564Z,19.38
2022-12-05T14:09:17.296Z,14.18
2022-12-05T14:12:16.104Z,14.75
2022-12-05T14:15:04.113Z,15.35
2022-12-05T14:17:40.715Z,16.40
2022-12-05T14:20:25.346Z,17.92
2022-12-05T14:25:48.987Z,12.98
2022-12-05T14:28:43.057Z,11.82
2022-12-05T14:31:12.717Z,14.13
2022-12-05T14:33:39.712Z,12.25
2022-12-05T14:36:13.284Z,13.95
2022-12-05T14:38:40.596Z,12.55
2022-12-05T14:41:24.748Z,13.40
2022-12-05T14:43:54.795Z,14.52
2022-12-05T14:46:32.056Z,13.70
2022-12-05T14:49:19.060Z,12.73
2022-12-05T14:51:57.520Z,15.77
2022-12-05T14:54:25.813Z,15.65
2022-12-05T14:57:03.602Z,14.98
2022-12-05T14:59:34.632Z,15.95
2022-12-05T15:02:03.563Z,15.38
2022-12-05T15:04:46.632Z,16.70
2022-12-05T15:07:23.032Z,13.98
2022-12-05T15:10:05.950Z,16.70
2022-12-05T15:12:57.224Z,15.75
2022-12-05T15:15:40.012Z,14.70
2022-12-05T15:18:39.438Z,17.48
2022-12-05T15:21:28.979Z,12.93
2022-12-05T15:23:59.639Z,15.05
2022-12-05T15:26:48.776Z,15.73
2022-12-05T15:29:25.490Z,15.25
2022-12-05T15:31:57.239Z,14.95
2022-12-05T15:34:34.198Z,13.50
2022-12-05T15:37:19.532Z,14.73
2022-12-05T15:39:59.771Z,13.88
2022-12-05T15:42:41.584Z,17.88
2022-12-05T15:45:17.042Z,13.95
2022-12-05T15:47:45.068Z,12.25
2022-12-05T15:50:20.810Z,12.98
2022-12-05T15:53:04.741Z,12.65
2022-12-05T15:56:04.271Z,12.30
2022-12-05T15:58:45.975Z,13.85
2022-12-05T16:01:15.575Z,10.40
2022-12-05T16:03:47.972Z,10.75
2022-12-05T16:06:46.162Z,11.57
2022-12-05T16:09:22.079Z,7.53
2022-12-05T16:12:00.286Z,9.60
2022-12-05T16:17:20.895Z,7.53
2022-12-05T16:19:48.263Z,5.95
2022-12-05T16:22:22.010Z,4.82
2022-12-05T16:24:59.684Z,5.35
2022-12-05T16:27:34.769Z,7.07
2022-12-05T16:30:20.829Z,5.40
2022-12-05T16:32:49.840Z,3.35
2022-12-05T16:35:29.017Z,3.97
2022-12-05T16:38:11.330Z,3.95
2022-12-05T16:40:41.042Z,4.90
2022-12-05T16:43:19.884Z,6.78
2022-12-05T16:45:47.915Z,4.50
2022-12-05T16:48:18.687Z,3.15
2022-12-05T16:50:45.887Z,3.22
2022-12-05T16:53:20.998Z,2.72
2022-12-05T16:55:48.501Z,2.85
2022-12-05T16:58:24.259Z,3.00
2022-12-05T17:00:51.664Z,2.55
2022-12-05T17:03:33.927Z,2.20
2022-12-05T17:06:02.017Z,2.22
2022-12-05T17:08:28.793Z,2.08
2022-12-05T17:10:55.786Z,2.08
2022-12-05T17:13:22.662Z,3.90
2022-12-05T17:15:50.142Z,2.00
2022-12-05T17:18:20.593Z,2.22
2022-12-05T17:20:53.363Z,2.22
2022-12-05T17:23:20.300Z,2.78
2022-12-05T17:25:55.948Z,3.65
2022-12-05T17:28:23.269Z,3.38
2022-12-05T17:30:50.805Z,4.13
2022-12-05T17:33:19.826Z,3.80
2022-12-05T17:35:47.009Z,3.78
2022-12-05T17:38:14.371Z,3.47
2022-12-05T17:40:41.654Z,4.70
2022-12-05T17:43:14.378Z,4.35
2022-12-05T17:45:42.361Z,5.93
2022-12-05T17:48:13.921Z,3.38
2022-12-05T17:50:43.022Z,4.05
2022-12-05T17:53:14.137Z,5.57
2022-12-05T17:55:41.754Z,5.72
2022-12-05T17:58:09.373Z,6.40
2022-12-05T18:00:36.362Z,7.65
2022-12-05T18:03:04.023Z,7.10
2022-12-05T18:05:30.960Z,5.57
2022-12-05T18:07:57.917Z,5.22
2022-12-05T18:10:24.819Z,3.67
2022-12-05T18:12:51.834Z,3.38
2022-12-05T18:15:18.839Z,2.58
2022-12-05T18:17:46.005Z,2.60
2022-12-05T18:20:14.559Z,2.60
2022-12-05T18:22:42.018Z,2.42
2022-12-05T18:25:09.962Z,2.15
2022-12-05T18:27:37.760Z,3.60
2022-12-05T18:30:06.150Z,2.53
2022-12-05T18:32:33.862Z,2.60
2022-12-05T18:35:02.127Z,2.03
2022-12-05T18:37:29.541Z,2.50
2022-12-05T18:39:56.590Z,2.70
2022-12-05T18:42:23.762Z,2.30
2022-12-05T18:44:50.746Z,2.75
2022-12-05T18:47:17.741Z,2.13
2022-12-05T18:49:44.758Z,2.33
2022-12-05T18:52:11.789Z,2.08
2022-12-05T18:54:38.744Z,2.22
2022-12-05T18:57:05.790Z,2.35
2022-12-05T18:59:33.189Z,2.45
2022-12-05T19:02:00.489Z,2.42
2022-12-05T19:04:28.794Z,2.15
2022-12-05T19:06:58.816Z,2.55
2022-12-05T19:09:29.223Z,2.53
2022-12-05T19:11:58.635Z,2.55
2022-12-05T19:14:27.747Z,3.00
2022-12-05T19:16:59.983Z,4.30
2022-12-05T19:19:28.018Z,5.72
2022-12-05T19:21:55.979Z,3.13
2022-12-05T19:24:23.579Z,4.32
2022-12-05T19:26:50.664Z,5.18
2022-12-05T19:29:17.865Z,4.40
2022-12-05T19:31:45.483Z,3.20
2022-12-05T19:34:12.859Z,3.30
2022-12-05T19:36:43.667Z,3.28
2022-12-05T19:39:23.557Z,2.70
2022-12-05T19:41:51.035Z,2.45
2022-12-05T19:44:17.993Z,2.55
2022-12-05T19:46:45.425Z,2.80
2022-12-05T19:49:14.844Z,2.30
2022-12-05T19:51:42.652Z,1.83
2022-12-05T19:54:11.664Z,2.17
2022-12-05T19:56:39.423Z,1.85
2022-12-05T19:59:07.025Z,2.10
2022-12-05T20:01:36.920Z,2.30
2022-12-05T20:04:10.006Z,3.15
2022-12-05T20:06:39.866Z,2.67
2022-12-05T20:09:08.994Z,2.38
2022-12-05T20:11:40.144Z,2.22
2022-12-05T20:14:07.110Z,2.25
2022-12-05T20:16:34.069Z,2.00
2022-12-05T20:19:01.219Z,2.25
2022-12-05T20:21:32.435Z,2.17
2022-12-05T20:24:00.954Z,2.95
2022-12-05T20:26:37.432Z,1.60
2022-12-05T20:29:06.025Z,1.83
2022-12-05T20:31:36.024Z,1.80
2022-12-05T20:34:04.032Z,1.98
2022-12-05T20:36:33.026Z,2.53
2022-12-05T20:39:14.474Z,2.03
2022-12-05T20:41:41.615Z,1.73
2022-12-05T20:44:08.930Z,2.08
2022-12-05T20:46:36.890Z,1.83
2022-12-05T20:49:04.073Z,2.53
2022-12-05T20:51:32.804Z,2.33
2022-12-05T20:54:01.635Z,2.20
2022-12-05T20:56:34.318Z,2.20
2022-12-05T20:59:04.162Z,2.90
2022-12-05T21:01:36.950Z,2.30
2022-12-05T21:04:06.433Z,2.25
2022-12-05T21:06:38.457Z,2.15
2022-12-05T21:09:14.754Z,2.22
2022-12-05T21:11:42.817Z,2.47
2022-12-05T21:14:09.649Z,2.03
2022-12-05T21:16:36.988Z,3.08
2022-12-05T21:19:03.907Z,2.63
2022-12-05T21:21:34.177Z,3.38
2022-12-05T21:24:03.119Z,2.08
2022-12-05T21:26:32.556Z,2.20
2022-12-05T21:29:00.602Z,2.50
2022-12-05T21:31:39.684Z,2.65
2022-12-05T21:34:12.433Z,3.10
2022-12-05T21:36:39.339Z,2.63
2022-12-05T21:39:07.155Z,2.42
2022-12-05T21:41:34.564Z,2.85
2022-12-05T21:44:01.615Z,2.15
2022-12-05T21:46:28.757Z,2.55
2022-12-05T21:48:55.675Z,2.58
2022-12-05T21:51:23.437Z,2.78
2022-12-05T21:53:50.723Z,2.85
2022-12-05T21:56:20.211Z,3.03
2022-12-05T21:58:47.452Z,2.42
2022-12-05T22:01:20.691Z,3.65
2022-12-05T22:03:47.594Z,2.55
2022-12-05T22:06:15.378Z,2.53
2022-12-05T22:08:43.147Z,2.30
2022-12-05T22:11:15.144Z,2.60
2022-12-05T22:13:43.236Z,2.97
2022-12-05T22:16:10.933Z,4.07
2022-12-05T22:18:37.915Z,2.72
2022-12-05T22:21:07.756Z,3.10
2022-12-05T22:23:35.030Z,2.55
2022-12-05T22:26:05.033Z,2.22
2022-12-05T22:28:32.620Z,3.53
2022-12-05T22:31:02.431Z,2.53
2022-12-05T22:33:29.990Z,2.75
2022-12-05T22:35:59.371Z,3.85
2022-12-05T22:38:28.204Z,3.63
2022-12-05T22:40:56.240Z,2.88
2022-12-05T22:43:24.638Z,4.53
2022-12-05T22:45:51.822Z,2.88
2022-12-05T22:48:18.796Z,2.92
2022-12-05T22:50:50.428Z,2.10
2022-12-05T22:53:23.129Z,2.50
2022-12-05T22:55:50.583Z,2.63
2022-12-05T22:58:18.156Z,2.90
2022-12-05T23:00:46.211Z,1.90
2022-12-05T23:03:13.523Z,2.53
2022-12-05T23:05:42.144Z,2.22
2022-12-05T23:08:10.167Z,2.63
2022-12-05T23:10:39.154Z,2.65
2022-12-05T23:13:09.185Z,2.13
2022-12-05T23:15:39.154Z,2.00
2022-12-05T23:18:06.334Z,2.40
2022-12-05T23:20:33.259Z,1.77
2022-12-05T23:23:00.215Z,2.08
2022-12-05T23:25:27.275Z,2.45
2022-12-05T23:27:54.319Z,2.10
2022-12-05T23:30:21.194Z,3.10
2022-12-05T23:32:48.184Z,2.72
2022-12-05T23:35:15.134Z,2.45
2022-12-05T23:37:42.158Z,1.88
2022-12-05T23:40:09.281Z,1.92
2022-12-05T23:42:36.181Z,1.75
2022-12-05T23:45:03.188Z,1.77
2022-12-05T23:47:30.110Z,2.22
2022-12-05T23:49:57.207Z,2.10
2022-12-05T23:52:24.602Z,2.17
2022-12-05T23:54:51.475Z,3.55
2022-12-05T23:57:18.672Z,2.35
2022-12-05T23:59:45.981Z,1.88
